Time;durP1;ratioP1;P1;durP2;ratioP2;P2;SDS_P1;SDS_P2;PMS_P1;PMS_P2;Temp;Humidity;BMP_temperature;BMP_pressure;BME280_temperature;BME280_humidity;BME280_pressure;Samples;Min_cycle;Max_cycle;Signal;HPM_P1;HPM_P2
2024/01/27 00:00:43;;;;;;;0.10;0.10;;;4.50;99.90;;;;;;5024617;28;20025;-78
2024/01/27 00:03:09;;;;;;;0.00;0.00;;;4.60;99.90;;;;;;5008988;28;20041;-78
2024/01/27 00:05:35;;;;;;;0.00;0.00;;;4.60;99.90;;;;;;5005326;28;20041;-78
2024/01/27 00:08:01;;;;;;;26.67;0.90;;;4.60;99.90;;;;;;5008776;28;20041;-78
2024/01/27 00:10:27;;;;;;;0.00;0.00;;;4.20;99.90;;;;;;5001090;28;20030;-79
2024/01/27 00:12:53;;;;;;;0.00;0.00;;;4.30;99.90;;;;;;5001746;28;20034;-78
2024/01/27 00:15:19;;;;;;;1.17;1.15;;;4.20;99.90;;;;;;5006464;28;20470;-78
2024/01/27 00:17:45;;;;;;;0.35;0.35;;;4.10;99.90;;;;;;5025387;28;20043;-78
2024/01/27 00:20:11;;;;;;;0.95;0.93;;;4.00;99.90;;;;;;5010631;28;20488;-78
2024/01/27 00:22:37;;;;;;;2.72;1.90;;;4.00;99.90;;;;;;5007750;28;20030;-78
2024/01/27 00:25:03;;;;;;;1.40;1.30;;;3.90;99.90;;;;;;5008578;28;20025;-79
2024/01/27 00:27:29;;;;;;;0.80;0.80;;;4.10;99.90;;;;;;5004010;28;20019;-78
2024/01/27 00:29:55;;;;;;;0.40;0.15;;;4.30;99.90;;;;;;5010154;28;20034;-78
2024/01/27 00:32:20;;;;;;;0.00;0.00;;;4.40;99.90;;;;;;5001292;28;20471;-78
2024/01/27 00:34:46;;;;;;;0.00;0.00;;;4.40;99.90;;;;;;5000165;28;20026;-78
2024/01/27 00:37:12;;;;;;;0.10;0.10;;;4.40;99.90;;;;;;4998513;28;20026;-78
2024/01/27 00:39:38;;;;;;;0.10;0.10;;;4.40;99.90;;;;;;4995962;28;20462;-78
2024/01/27 00:42:03;;;;;;;0.00;0.00;;;4.30;99.90;;;;;;4995211;28;20109;-78
2024/01/27 00:44:29;;;;;;;0.10;0.10;;;4.30;99.90;;;;;;4992560;28;20035;-78
2024/01/27 00:46:55;;;;;;;0.00;0.00;;;4.30;99.90;;;;;;5009631;28;20022;-78
2024/01/27 00:49:21;;;;;;;0.30;0.30;;;4.30;99.90;;;;;;5010958;28;20045;-78
2024/01/27 00:51:47;;;;;;;0.10;0.10;;;4.30;99.90;;;;;;5007071;28;20026;-79
2024/01/27 00:54:13;;;;;;;0.00;0.00;;;4.30;99.90;;;;;;5002439;28;20394;-78
2024/01/27 00:56:38;;;;;;;0.10;0.10;;;4.50;99.90;;;;;;5007785;28;20029;-79
2024/01/27 00:59:04;;;;;;;0.05;0.05;;;4.50;99.90;;;;;;4998680;28;20049;-78
2024/01/27 01:01:30;;;;;;;0.32;0.32;;;4.40;99.90;;;;;;5008684;28;20382;-78
2024/01/27 01:03:56;;;;;;;0.00;0.00;;;4.50;99.90;;;;;;5009151;28;20037;-77
2024/01/27 01:06:22;;;;;;;2.33;1.25;;;4.20;99.90;;;;;;5007904;28;20025;-79
2024/01/27 01:08:48;;;;;;;0.00;0.00;;;3.90;99.90;;;;;;5004643;28;20105;-78
2024/01/27 01:11:14;;;;;;;0.25;0.25;;;4.00;99.90;;;;;;5005288;28;20052;-78
2024/01/27 01:13:40;;;;;;;0.38;0.38;;;4.10;99.90;;;;;;4999741;28;20057;-78
2024/01/27 01:16:07;;;;;;;0.43;0.40;;;3.90;99.90;;;;;;5014689;28;20109;-79
2024/01/27 01:18:33;;;;;;;0.00;0.00;;;3.90;99.90;;;;;;5014408;28;20383;-79
2024/01/27 01:20:59;;;;;;;0.20;0.20;;;4.00;99.90;;;;;;5010284;28;20038;-78
2024/01/27 01:23:25;;;;;;;0.00;0.00;;;4.00;99.90;;;;;;5011747;28;20025;-78
2024/01/27 01:25:51;;;;;;;0.10;0.10;;;4.20;99.90;;;;;;5010776;28;20041;-78
2024/01/27 01:28:17;;;;;;;0.10;0.10;;;3.90;99.90;;;;;;5008258;28;20120;-79
2024/01/27 01:30:42;;;;;;;0.10;0.10;;;4.00;99.90;;;;;;5006636;28;20018;-78
2024/01/27 01:33:10;;;;;;;0.35;0.35;;;3.80;99.90;;;;;;5023424;28;20026;-78
2024/01/27 01:35:37;;;;;;;0.10;0.10;;;3.80;99.90;;;;;;5010820;28;20026;-78
2024/01/27 01:38:03;;;;;;;0.17;0.17;;;3.50;99.90;;;;;;5007569;28;20038;-78
2024/01/27 01:40:29;;;;;;;0.03;0.03;;;3.60;99.90;;;;;;4999704;28;20030;-79
2024/01/27 01:42:55;;;;;;;0.00;0.00;;;3.70;99.90;;;;;;4997461;28;20019;-79
2024/01/27 01:45:21;;;;;;;0.95;0.95;;;3.90;99.90;;;;;;4994851;28;20411;-78
2024/01/27 01:47:47;;;;;;;0.00;0.00;;;3.90;99.90;;;;;;5006599;28;20030;-79
2024/01/27 01:50:12;;;;;;;0.00;0.00;;;3.80;99.90;;;;;;5011369;28;20048;-79
2024/01/27 01:52:39;;;;;;;0.10;0.10;;;3.90;99.90;;;;;;5012422;28;20096;-79
2024/01/27 01:55:05;;;;;;;0.00;0.00;;;4.10;99.90;;;;;;5010213;28;20022;-78
2024/01/27 01:57:33;;;;;;;0.20;0.20;;;3.80;99.90;;;;;;5012865;28;20390;-79
2024/01/27 01:59:59;;;;;;;0.70;0.70;;;3.70;99.90;;;;;;5010559;28;20019;-79
2024/01/27 02:02:25;;;;;;;0.00;0.00;;;3.30;99.90;;;;;;5010466;28;20072;-79
2024/01/27 02:04:51;;;;;;;0.10;0.10;;;3.30;99.90;;;;;;5006671;28;20027;-79
2024/01/27 02:07:16;;;;;;;0.10;0.10;;;3.20;99.90;;;;;;5020920;28;20112;-78
2024/01/27 02:09:43;;;;;;;0.38;0.38;;;3.30;99.90;;;;;;5005144;28;20034;-78
2024/01/27 02:12:09;;;;;;;0.00;0.00;;;3.40;99.90;;;;;;5001572;28;20061;-77
2024/01/27 02:14:35;;;;;;;0.00;0.00;;;3.60;99.90;;;;;;5012923;28;20099;-79
2024/01/27 02:17:01;;;;;;;0.00;0.00;;;3.60;99.90;;;;;;5013965;28;20022;-78
2024/01/27 02:19:27;;;;;;;0.00;0.00;;;3.50;99.90;;;;;;5009948;28;20022;-79
2024/01/27 02:21:56;;;;;;;0.20;0.20;;;3.60;99.90;;;;;;5010828;28;20025;-78
2024/01/27 02:24:22;;;;;;;0.00;0.00;;;3.50;99.90;;;;;;4995470;28;20488;-78
2024/01/27 02:26:47;;;;;;;0.00;0.00;;;3.40;99.90;;;;;;4998241;28;20232;-79
2024/01/27 02:29:13;;;;;;;0.10;0.10;;;3.40;99.90;;;;;;5030945;28;20032;-79
2024/01/27 02:31:39;;;;;;;0.10;0.10;;;3.30;99.90;;;;;;5012702;28;20088;-79
2024/01/27 02:34:05;;;;;;;0.00;0.00;;;3.30;99.90;;;;;;5012045;28;20430;-79
2024/01/27 02:36:31;;;;;;;0.10;0.10;;;3.30;99.90;;;;;;5012578;28;20029;-78
2024/01/27 02:38:57;;;;;;;0.15;0.15;;;3.30;99.90;;;;;;5009612;28;20039;-79
2024/01/27 02:41:22;;;;;;;0.10;0.10;;;3.40;99.90;;;;;;5005033;28;20033;-78
2024/01/27 02:43:48;;;;;;;0.50;0.50;;;3.10;99.90;;;;;;5011623;28;20037;-79
2024/01/27 02:46:15;;;;;;;0.10;0.10;;;2.90;99.90;;;;;;5010209;28;20052;-79
2024/01/27 02:48:44;;;;;;;0.00;0.00;;;2.80;99.90;;;;;;5008925;28;20026;-79
2024/01/27 02:51:10;;;;;;;0.20;0.20;;;3.00;99.90;;;;;;5006211;28;20375;-79
2024/01/27 02:53:36;;;;;;;0.00;0.00;;;3.10;99.90;;;;;;5004858;28;20026;-79
2024/01/27 02:56:02;;;;;;;0.10;0.10;;;3.30;99.90;;;;;;5015066;28;20038;-79
2024/01/27 02:58:28;;;;;;;0.38;0.38;;;3.30;99.90;;;;;;5009992;28;20464;-79
2024/01/27 03:00:54;;;;;;;0.40;0.40;;;3.30;99.90;;;;;;5011043;28;20025;-79
2024/01/27 03:03:20;;;;;;;0.13;0.13;;;3.30;99.90;;;;;;5010120;28;20053;-79
2024/01/27 03:05:45;;;;;;;0.20;0.20;;;3.30;99.90;;;;;;5008042;28;20032;-78
2024/01/27 03:08:11;;;;;;;0.10;0.10;;;3.10;99.90;;;;;;5006043;28;20026;-79
2024/01/27 03:10:37;;;;;;;0.00;0.00;;;3.10;99.90;;;;;;5010541;28;20499;-79
2024/01/27 03:13:03;;;;;;;0.15;0.15;;;3.20;99.90;;;;;;5001978;28;20018;-79
2024/01/27 03:15:29;;;;;;;0.22;0.22;;;3.40;99.90;;;;;;5003545;28;20026;-79
2024/01/27 03:17:55;;;;;;;0.10;0.10;;;3.50;99.90;;;;;;4998634;28;20022;-79
2024/01/27 03:20:21;;;;;;;4.40;1.55;;;3.50;99.90;;;;;;5000246;28;20029;-79
2024/01/27 03:22:47;;;;;;;0.05;0.05;;;3.60;99.90;;;;;;4996218;28;20018;-79
2024/01/27 03:25:13;;;;;;;5.72;1.70;;;3.60;99.90;;;;;;4995445;28;20071;-79
2024/01/27 03:27:39;;;;;;;0.20;0.20;;;3.60;99.90;;;;;;5002989;28;20117;-79
2024/01/27 03:30:07;;;;;;;0.13;0.13;;;3.50;99.90;;;;;;5010352;28;20128;-79
2024/01/27 03:32:33;;;;;;;0.00;0.00;;;3.20;99.90;;;;;;5019999;28;20478;-79
2024/01/27 03:34:59;;;;;;;1.08;0.80;;;3.20;99.90;;;;;;5010645;28;20022;-79
2024/01/27 03:37:25;;;;;;;0.10;0.10;;;3.30;99.90;;;;;;5009214;28;20034;-79
2024/01/27 03:39:51;;;;;;;0.10;0.10;;;3.40;99.90;;;;;;5008822;28;20036;-79
2024/01/27 03:42:17;;;;;;;0.00;0.00;;;3.50;99.90;;;;;;5010033;28;20026;-79
2024/01/27 03:44:43;;;;;;;0.05;0.05;;;3.50;99.90;;;;;;5006066;28;20022;-80
2024/01/27 03:47:09;;;;;;;0.00;0.00;;;3.50;99.90;;;;;;5000949;28;20037;-78
2024/01/27 03:49:34;;;;;;;0.93;0.93;;;3.30;99.90;;;;;;5003522;28;20026;-79
2024/01/27 03:52:00;;;;;;;1.10;0.98;;;3.40;99.90;;;;;;4998238;28;20109;-79
2024/01/27 03:54:26;;;;;;;2.85;0.55;;;3.30;99.90;;;;;;5002127;28;20032;-79
2024/01/27 03:56:52;;;;;;;0.00;0.00;;;3.10;99.90;;;;;;5002865;28;20121;-79
2024/01/27 03:59:18;;;;;;;2.47;2.33;;;3.30;99.90;;;;;;5002433;28;20030;-79
2024/01/27 04:01:43;;;;;;;0.00;0.00;;;3.30;99.90;;;;;;5000392;28;20098;-79
2024/01/27 04:04:09;;;;;;;8.30;2.13;;;3.10;99.90;;;;;;4998030;28;20061;-79
2024/01/27 04:06:39;;;;;;;6.82;2.08;;;3.30;99.90;;;;;;4997873;28;20543;-79
2024/01/27 04:09:11;;;;;;;0.20;0.20;;;3.10;99.90;;;;;;4995678;28;20128;-79
2024/01/27 04:11:38;;;;;;;3.88;1.13;;;3.00;99.90;;;;;;5006305;28;20061;-79
2024/01/27 04:14:05;;;;;;;0.08;0.08;;;3.10;99.90;;;;;;4993581;28;20061;-79
2024/01/27 04:16:31;;;;;;;0.17;0.17;;;3.10;99.90;;;;;;5009856;28;20041;-79
2024/01/27 04:18:57;;;;;;;1.25;1.17;;;3.10;99.90;;;;;;5010566;28;20410;-79
2024/01/27 04:21:23;;;;;;;0.25;0.25;;;3.10;99.90;;;;;;4994981;28;20018;-79
2024/01/27 04:23:49;;;;;;;0.20;0.20;;;3.40;99.90;;;;;;5008480;28;20037;-79
2024/01/27 04:26:15;;;;;;;0.10;0.10;;;3.30;99.90;;;;;;5008881;28;20015;-79
2024/01/27 04:28:41;;;;;;;1.58;1.00;;;3.40;99.90;;;;;;5005838;28;20044;-79
2024/01/27 04:31:07;;;;;;;11.82;10.88;;;3.30;99.90;;;;;;5005738;28;20479;-80
2024/01/27 04:33:33;;;;;;;0.75;0.75;;;3.20;99.90;;;;;;5002309;28;20018;-80
2024/01/27 04:35:59;;;;;;;6.22;0.85;;;3.50;99.90;;;;;;5000877;28;20037;-79
2024/01/27 04:38:25;;;;;;;1.52;0.95;;;3.40;99.90;;;;;;5014589;28;20479;-77
2024/01/27 04:40:52;;;;;;;1.80;1.70;;;3.30;99.90;;;;;;5013453;28;20081;-79
2024/01/27 04:43:20;;;;;;;0.20;0.20;;;3.10;99.90;;;;;;5002070;28;20014;-79
2024/01/27 04:45:47;;;;;;;0.90;0.90;;;3.10;99.90;;;;;;5004284;28;20394;-80
2024/01/27 04:48:13;;;;;;;0.98;0.95;;;3.20;99.90;;;;;;5006067;28;20029;-79
2024/01/27 04:50:39;;;;;;;0.90;0.90;;;3.20;99.90;;;;;;5004747;28;20077;-80
2024/01/27 04:53:05;;;;;;;0.10;0.10;;;3.30;99.90;;;;;;5004082;28;20034;-80
2024/01/27 04:55:31;;;;;;;0.60;0.35;;;3.30;99.90;;;;;;5010022;28;20466;-79
2024/01/27 04:57:58;;;;;;;0.75;0.75;;;3.50;99.90;;;;;;5015619;28;20065;-79
2024/01/27 05:00:26;;;;;;;0.43;0.43;;;3.30;99.90;;;;;;5008917;28;20026;-79
2024/01/27 05:02:52;;;;;;;0.00;0.00;;;3.30;99.90;;;;;;5013848;28;20022;-79
2024/01/27 05:05:18;;;;;;;1.70;1.60;;;3.20;99.90;;;;;;5015786;28;20493;-79
2024/01/27 05:07:44;;;;;;;0.10;0.10;;;3.20;99.90;;;;;;5015737;28;20105;-80
2024/01/27 05:10:15;;;;;;;0.10;0.10;;;3.00;99.90;;;;;;5015736;28;20041;-79
2024/01/27 05:12:41;;;;;;;0.03;0.03;;;3.00;99.90;;;;;;5015869;28;20026;-79
2024/01/27 05:15:07;;;;;;;1.98;1.65;;;2.80;99.90;;;;;;5015637;28;20160;-79
2024/01/27 05:17:33;;;;;;;2.72;2.40;;;3.00;99.90;;;;;;5015465;28;20113;-79
2024/01/27 05:19:59;;;;;;;0.20;0.20;;;2.90;99.90;;;;;;5015647;28;20109;-79
2024/01/27 05:22:25;;;;;;;0.20;0.20;;;3.00;99.90;;;;;;5015627;28;20025;-79
2024/01/27 05:24:51;;;;;;;0.45;0.45;;;3.00;99.90;;;;;;5014400;28;20383;-79
2024/01/27 05:27:17;;;;;;;0.13;0.13;;;3.10;99.90;;;;;;5015433;28;20025;-79
2024/01/27 05:29:42;;;;;;;1.05;1.00;;;3.20;99.90;;;;;;5015421;28;20030;-80
2024/01/27 05:32:08;;;;;;;0.30;0.30;;;3.10;99.90;;;;;;5015294;28;20022;-79
2024/01/27 05:34:35;;;;;;;0.00;0.00;;;3.10;99.90;;;;;;5015302;28;20053;-79
2024/01/27 05:37:01;;;;;;;0.10;0.10;;;3.30;99.90;;;;;;5015360;28;20053;-79
2024/01/27 05:39:29;;;;;;;0.43;0.43;;;3.30;99.90;;;;;;5015383;28;20502;-79
2024/01/27 05:41:55;;;;;;;0.43;0.43;;;3.20;99.90;;;;;;5015437;28;20026;-78
2024/01/27 05:44:21;;;;;;;7.72;1.98;;;3.20;99.90;;;;;;5015073;28;20022;-79
2024/01/27 05:46:47;;;;;;;7.10;0.95;;;3.10;99.90;;;;;;5014968;28;20018;-79
2024/01/27 05:49:13;;;;;;;11.25;2.30;;;3.10;99.90;;;;;;5015252;28;20030;-79
2024/01/27 05:51:39;;;;;;;1.20;0.90;;;3.00;99.90;;;;;;5016572;28;20034;-78
2024/01/27 05:54:05;;;;;;;1.35;1.35;;;2.80;99.90;;;;;;5014989;28;20061;-79
2024/01/27 05:56:30;;;;;;;1.55;1.45;;;2.80;99.90;;;;;;5015114;28;20025;-79
2024/01/27 05:58:56;;;;;;;0.60;0.60;;;3.00;99.90;;;;;;5014848;28;20457;-79
2024/01/27 06:01:22;;;;;;;0.80;0.80;;;2.80;99.90;;;;;;5012830;28;20068;-79
2024/01/27 06:03:48;;;;;;;0.10;0.10;;;2.90;99.90;;;;;;5013615;28;20117;-79
2024/01/27 06:06:14;;;;;;;0.08;0.08;;;2.90;99.90;;;;;;5014220;28;20060;-79
2024/01/27 06:08:41;;;;;;;2.47;1.48;;;2.90;99.90;;;;;;5014683;28;20026;-79
2024/01/27 06:11:06;;;;;;;0.10;0.10;;;2.70;99.90;;;;;;5013269;28;20402;-79
2024/01/27 06:13:33;;;;;;;0.00;0.00;;;2.80;99.90;;;;;;5014730;28;20018;-79
2024/01/27 06:15:59;;;;;;;0.10;0.10;;;2.90;99.90;;;;;;5014553;28;20040;-81
2024/01/27 06:18:25;;;;;;;0.52;0.52;;;3.00;99.90;;;;;;5014597;28;20079;-79
2024/01/27 06:20:51;;;;;;;11.40;2.63;;;3.00;99.90;;;;;;5014521;28;20022;-79
2024/01/27 06:23:16;;;;;;;0.20;0.20;;;2.80;99.90;;;;;;5014472;28;20032;-79
2024/01/27 06:25:43;;;;;;;1.38;1.27;;;2.90;99.90;;;;;;5014198;28;20480;-79
2024/01/27 06:28:09;;;;;;;5.78;2.00;;;2.70;99.90;;;;;;5014061;28;20112;-77
2024/01/27 06:30:34;;;;;;;0.40;0.40;;;2.80;99.90;;;;;;5014151;28;20057;-79
2024/01/27 06:33:00;;;;;;;0.57;0.57;;;2.80;99.90;;;;;;5014611;28;20180;-78
2024/01/27 06:35:26;;;;;;;2.17;1.50;;;2.70;99.90;;;;;;5013983;28;20038;-79
2024/01/27 06:37:52;;;;;;;0.68;0.68;;;2.60;99.90;;;;;;5012966;28;20030;-79
2024/01/27 06:40:18;;;;;;;0.10;0.10;;;2.80;99.90;;;;;;5014162;28;20168;-82
2024/01/27 06:42:44;;;;;;;0.65;0.65;;;2.70;99.90;;;;;;5014044;28;20022;-79
2024/01/27 06:45:10;;;;;;;0.00;0.00;;;2.90;99.90;;;;;;5014068;28;20041;-79
2024/01/27 06:47:36;;;;;;;0.00;0.00;;;2.90;99.90;;;;;;5014107;28;20453;-79
2024/01/27 06:50:03;;;;;;;1.33;1.27;;;3.10;99.90;;;;;;5014179;28;20030;-79
2024/01/27 06:52:28;;;;;;;0.00;0.00;;;3.10;99.90;;;;;;5014002;28;20519;-79
2024/01/27 06:54:54;;;;;;;0.80;0.73;;;3.10;99.90;;;;;;5013918;28;20037;-78
2024/01/27 06:57:21;;;;;;;0.30;0.30;;;3.20;99.90;;;;;;5013431;28;20474;-78
2024/01/27 06:59:55;;;;;;;0.10;0.10;;;3.20;99.90;;;;;;5013468;28;20080;-80
2024/01/27 07:02:28;;;;;;;0.57;0.57;;;3.10;99.90;;;;;;5013781;28;20026;-75
2024/01/27 07:04:55;;;;;;;1.20;1.05;;;3.10;99.90;;;;;;4996430;28;20030;-79
2024/01/27 07:07:27;;;;;;;1.30;1.00;;;3.00;99.90;;;;;;5012495;28;20537;-78
2024/01/27 07:09:55;;;;;;;0.08;0.08;;;2.90;99.90;;;;;;5013840;28;20562;-78
2024/01/27 07:12:21;;;;;;;0.35;0.35;;;3.00;99.90;;;;;;5013539;28;20072;-78
2024/01/27 07:14:46;;;;;;;0.00;0.00;;;2.90;99.90;;;;;;5008970;28;20033;-78
2024/01/27 07:17:13;;;;;;;0.17;0.17;;;2.90;99.90;;;;;;5007215;28;20026;-77
2024/01/27 07:19:39;;;;;;;4.97;3.08;;;2.80;99.90;;;;;;5007862;28;20064;-77
2024/01/27 07:22:05;;;;;;;0.08;0.08;;;2.90;99.90;;;;;;5008266;28;20080;-77
2024/01/27 07:24:31;;;;;;;0.20;0.20;;;2.80;99.90;;;;;;5008824;28;20033;-78
2024/01/27 07:26:58;;;;;;;0.10;0.10;;;2.80;99.90;;;;;;5008874;28;20026;-77
2024/01/27 07:29:24;;;;;;;4.03;2.33;;;2.80;99.90;;;;;;5009711;28;20030;-78
2024/01/27 07:31:50;;;;;;;0.20;0.20;;;2.90;99.90;;;;;;5008517;28;20052;-78
2024/01/27 07:34:16;;;;;;;1.45;0.43;;;2.80;99.90;;;;;;5008431;28;20054;-78
2024/01/27 07:36:42;;;;;;;1.67;1.58;;;2.90;99.90;;;;;;5009133;28;20379;-78
2024/01/27 07:39:08;;;;;;;0.73;0.52;;;3.00;99.90;;;;;;5008966;28;20455;-77
2024/01/27 07:41:34;;;;;;;0.40;0.40;;;2.80;99.90;;;;;;5009206;28;20033;-79
2024/01/27 07:44:10;;;;;;;3.70;1.58;;;2.90;99.90;;;;;;5007110;28;20386;-79
2024/01/27 07:46:37;;;;;;;0.20;0.20;;;3.00;99.90;;;;;;5008734;28;20033;-78
2024/01/27 07:49:03;;;;;;;0.00;0.00;;;3.10;99.90;;;;;;5006483;28;20033;-77
2024/01/27 07:51:30;;;;;;;0.55;0.55;;;3.00;99.90;;;;;;5009107;28;20045;-78
2024/01/27 07:53:55;;;;;;;0.68;0.68;;;3.10;99.90;;;;;;5008647;28;20052;-78
2024/01/27 07:56:21;;;;;;;0.45;0.45;;;3.00;99.90;;;;;;5008941;28;20498;-79
2024/01/27 07:58:47;;;;;;;0.13;0.13;;;3.20;99.90;;;;;;5008973;28;20030;-78
2024/01/27 08:01:17;;;;;;;0.70;0.68;;;3.40;99.90;;;;;;5008690;28;20432;-77
2024/01/27 08:03:43;;;;;;;0.10;0.10;;;3.20;99.90;;;;;;5007524;28;20026;-79
2024/01/27 08:06:27;;;;;;;0.17;0.17;;;2.90;99.90;;;;;;5007459;28;20022;-79
2024/01/27 08:08:52;;;;;;;0.17;0.17;;;3.20;99.90;;;;;;5009092;28;20849;-77
2024/01/27 08:11:18;;;;;;;3.70;1.23;;;3.20;99.90;;;;;;5011304;28;20026;-79
2024/01/27 08:13:44;;;;;;;0.00;0.00;;;3.30;99.90;;;;;;5012911;28;20160;-77
2024/01/27 08:16:12;;;;;;;1.27;1.17;;;3.30;99.90;;;;;;5012645;28;20029;-78
2024/01/27 08:18:45;;;;;;;7.10;2.38;;;3.30;99.90;;;;;;5012498;28;20502;-78
2024/01/27 08:21:14;;;;;;;0.13;0.13;;;3.30;99.90;;;;;;5011116;28;20034;-76
2024/01/27 08:23:41;;;;;;;0.00;0.00;;;3.10;99.90;;;;;;5012933;28;20033;-76
2024/01/27 08:26:07;;;;;;;0.80;0.63;;;3.30;99.90;;;;;;5011274;28;20021;-79
2024/01/27 08:28:35;;;;;;;0.00;0.00;;;3.50;99.90;;;;;;5027567;28;20033;-77
2024/01/27 08:31:01;;;;;;;0.38;0.35;;;3.50;99.90;;;;;;5011755;28;20037;-79
2024/01/27 08:33:27;;;;;;;1.75;1.65;;;3.60;99.90;;;;;;5010354;28;20382;-77
2024/01/27 08:35:53;;;;;;;1.65;1.33;;;3.50;99.90;;;;;;5027092;28;20188;-77
2024/01/27 08:38:19;;;;;;;0.08;0.08;;;3.60;99.90;;;;;;5010939;28;20542;-77
2024/01/27 08:40:45;;;;;;;6.03;5.63;;;3.70;99.90;;;;;;5011787;28;20188;-77
2024/01/27 08:43:11;;;;;;;1.48;1.02;;;3.80;99.90;;;;;;5012682;28;20127;-79
2024/01/27 08:45:40;;;;;;;0.28;0.20;;;3.70;99.90;;;;;;5010440;28;20025;-74
2024/01/27 08:48:06;;;;;;;6.63;2.25;;;3.80;99.90;;;;;;5012303;28;20038;-74
2024/01/27 08:50:32;;;;;;;0.65;0.65;;;3.80;99.90;;;;;;5012520;28;20022;-76
2024/01/27 08:52:58;;;;;;;0.43;0.43;;;3.80;99.90;;;;;;5010253;28;20061;-77
2024/01/27 08:55:24;;;;;;;1.65;0.52;;;3.80;99.90;;;;;;5012173;28;20029;-73
2024/01/27 08:57:51;;;;;;;0.30;0.30;;;3.90;99.90;;;;;;5011027;28;20037;-77
2024/01/27 09:00:17;;;;;;;0.85;0.75;;;3.80;99.90;;;;;;5010681;28;20034;-79
2024/01/27 09:02:44;;;;;;;0.10;0.10;;;4.00;99.90;;;;;;5010511;28;20399;-76
2024/01/27 09:05:09;;;;;;;0.10;0.10;;;4.00;99.90;;;;;;5011921;28;20137;-77
2024/01/27 09:07:35;;;;;;;2.55;1.65;;;4.10;99.90;;;;;;5009962;28;20534;-76
2024/01/27 09:10:01;;;;;;;0.08;0.08;;;4.10;99.90;;;;;;5012283;28;20526;-80
2024/01/27 09:12:28;;;;;;;0.10;0.10;;;4.30;99.90;;;;;;5017066;28;20064;-85
2024/01/27 09:14:54;;;;;;;3.65;1.00;;;4.40;99.90;;;;;;5011638;28;20037;-74
2024/01/27 09:17:23;;;;;;;0.10;0.10;;;4.40;99.90;;;;;;5011971;28;20044;-79
2024/01/27 09:19:49;;;;;;;0.00;0.00;;;4.60;99.90;;;;;;5011452;28;20076;-80
2024/01/27 09:22:15;;;;;;;0.00;0.00;;;4.60;99.90;;;;;;5010844;28;20057;-78
2024/01/27 09:24:41;;;;;;;0.00;0.00;;;4.90;99.90;;;;;;5010346;28;20064;-79
2024/01/27 09:27:07;;;;;;;0.15;0.15;;;5.20;99.90;;;;;;5010259;28;20397;-77
2024/01/27 09:29:32;;;;;;;0.73;0.70;;;5.00;99.90;;;;;;5011663;28;20044;-80
2024/01/27 09:31:58;;;;;;;0.10;0.10;;;5.10;99.90;;;;;;5007283;28;20022;-79
2024/01/27 09:34:24;;;;;;;2.72;0.93;;;5.20;99.90;;;;;;5011722;28;20022;-78
2024/01/27 09:36:50;;;;;;;0.10;0.10;;;5.30;99.90;;;;;;5026157;28;20421;-79
2024/01/27 09:39:16;;;;;;;0.03;0.03;;;5.40;99.90;;;;;;5008329;28;20369;-76
2024/01/27 09:41:42;;;;;;;2.83;1.08;;;5.20;99.90;;;;;;5011940;28;20018;-79
2024/01/27 09:44:12;;;;;;;1.40;1.10;;;5.70;99.90;;;;;;5010611;28;20501;-78
2024/01/27 09:46:38;;;;;;;0.98;0.90;;;5.90;99.90;;;;;;5011141;28;20050;-77
2024/01/27 09:49:05;;;;;;;0.45;0.40;;;6.20;99.90;;;;;;5010014;28;20088;-79
2024/01/27 09:51:31;;;;;;;0.63;0.63;;;6.10;99.90;;;;;;5010472;28;20089;-78
2024/01/27 09:53:57;;;;;;;0.47;0.47;;;5.90;99.90;;;;;;5010773;28;20034;-79
2024/01/27 09:56:23;;;;;;;0.10;0.10;;;6.10;99.90;;;;;;5010583;28;20017;-79
2024/01/27 09:58:50;;;;;;;0.00;0.00;;;6.10;99.90;;;;;;5010955;28;20037;-75
2024/01/27 10:01:20;;;;;;;0.75;0.75;;;6.70;99.90;;;;;;5009588;28;20045;-79
2024/01/27 10:03:47;;;;;;;0.63;0.63;;;6.80;99.90;;;;;;5010541;28;20034;-79
2024/01/27 10:06:14;;;;;;;1.65;0.73;;;7.30;99.90;;;;;;5009960;28;20018;-77
2024/01/27 10:08:41;;;;;;;0.90;0.60;;;7.00;99.90;;;;;;5011070;28;20482;-79
2024/01/27 10:11:09;;;;;;;2.22;1.60;;;7.20;99.90;;;;;;5009836;28;20395;-78
2024/01/27 10:13:36;;;;;;;1.45;0.95;;;6.60;99.90;;;;;;5008993;28;20030;-77
2024/01/27 10:16:06;;;;;;;0.30;0.30;;;6.60;99.90;;;;;;4992975;28;20033;-78
2024/01/27 10:18:34;;;;;;;0.15;0.15;;;7.30;99.90;;;;;;5010160;28;20072;-79
2024/01/27 10:21:00;;;;;;;0.10;0.10;;;7.20;99.90;;;;;;5010111;28;20045;-77
2024/01/27 10:23:26;;;;;;;6.22;2.00;;;7.60;99.90;;;;;;5010549;28;20018;-79
2024/01/27 10:25:53;;;;;;;0.70;0.68;;;7.30;99.90;;;;;;5009055;28;20032;-79
2024/01/27 10:28:19;;;;;;;0.10;0.10;;;7.40;99.90;;;;;;5010024;28;20025;-77
2024/01/27 10:30:48;;;;;;;0.10;0.10;;;7.20;99.90;;;;;;5009333;28;20045;-79
2024/01/27 10:33:14;;;;;;;0.30;0.30;;;7.40;99.90;;;;;;5024308;28;20026;-78
2024/01/27 10:35:43;;;;;;;0.20;0.20;;;7.60;99.90;;;;;;5009025;28;20037;-76
2024/01/27 10:38:09;;;;;;;0.40;0.40;;;7.50;99.90;;;;;;5010103;28;20053;-79
2024/01/27 10:40:38;;;;;;;0.03;0.03;;;7.40;99.90;;;;;;5025052;28;20026;-78
2024/01/27 10:43:06;;;;;;;1.10;1.00;;;7.70;99.90;;;;;;5009502;28;20040;-78
2024/01/27 10:45:40;;;;;;;0.32;0.32;;;7.90;99.90;;;;;;5010133;28;20030;-79
2024/01/27 10:48:09;;;;;;;0.50;0.20;;;7.50;99.90;;;;;;4997943;28;20034;-77
2024/01/27 10:50:39;;;;;;;0.57;0.57;;;8.30;99.90;;;;;;4994858;28;20022;-79
2024/01/27 10:53:15;;;;;;;0.10;0.10;;;8.70;99.90;;;;;;5002144;28;20026;-79
2024/01/27 10:55:43;;;;;;;4.03;0.75;;;9.30;99.90;;;;;;5003315;28;20021;-78
2024/01/27 10:58:12;;;;;;;0.10;0.10;;;9.40;99.90;;;;;;5010277;28;20165;-78
2024/01/27 11:00:40;;;;;;;0.30;0.30;;;9.70;99.90;;;;;;5009691;28;20018;-78
2024/01/27 11:03:07;;;;;;;1.25;0.93;;;10.00;99.90;;;;;;5009398;28;20021;-78
2024/01/27 11:05:36;;;;;;;3.92;1.05;;;10.00;99.90;;;;;;5009210;28;20490;-77
2024/01/27 11:08:04;;;;;;;0.10;0.10;;;9.80;99.90;;;;;;5008509;28;20026;-78
2024/01/27 11:10:35;;;;;;;1.33;1.30;;;9.80;99.90;;;;;;5009207;28;20563;-78
2024/01/27 11:13:05;;;;;;;0.20;0.20;;;9.70;99.90;;;;;;5009006;28;20600;-77
2024/01/27 11:15:32;;;;;;;0.50;0.45;;;10.20;99.90;;;;;;5008650;28;20102;-76
2024/01/27 11:18:03;;;;;;;2.22;1.65;;;10.40;99.90;;;;;;5007774;28;20041;-78
2024/01/27 11:20:31;;;;;;;0.32;0.32;;;10.30;99.90;;;;;;5009290;28;20509;-77
2024/01/27 11:23:13;;;;;;;0.10;0.10;;;10.20;99.90;;;;;;5006816;28;20483;-78
2024/01/27 11:25:39;;;;;;;6.63;1.95;;;9.70;99.90;;;;;;5001851;28;20022;-77
2024/01/27 11:28:31;;;;;;;0.40;0.40;;;9.90;99.90;;;;;;5002256;28;20474;-77
2024/01/27 11:30:57;;;;;;;;;;;10.10;99.90;;;;;;5007832;28;20383;-78
2024/01/27 11:33:26;;;;;;;5.28;1.85;;;10.00;99.90;;;;;;5008530;28;19928;-78
2024/01/27 11:36:05;;;;;;;0.70;0.43;;;10.30;99.90;;;;;;4995901;28;20482;-78
2024/01/27 11:38:33;;;;;;;0.90;0.60;;;10.90;99.90;;;;;;5008832;28;20036;-76
2024/01/27 11:41:01;;;;;;;3.28;1.85;;;10.30;99.90;;;;;;5019747;28;20570;-77
2024/01/27 11:43:27;;;;;;;1.25;0.93;;;10.60;99.90;;;;;;5008695;28;20022;-76
2024/01/27 11:46:00;;;;;;;2.35;0.77;;;10.70;99.90;;;;;;5007289;28;20113;-77
2024/01/27 11:48:26;;;;;;;2.90;1.50;;;10.60;99.90;;;;;;5015239;28;20026;-78
2024/01/27 11:51:12;;;;;;;0.35;0.35;;;10.60;99.90;;;;;;5018608;28;20053;-78
2024/01/27 11:53:39;;;;;;;2.80;0.80;;;10.90;99.90;;;;;;5013377;28;20026;-77
2024/01/27 11:56:06;;;;;;;16.05;2.10;;;11.10;99.90;;;;;;5017101;28;20029;-77
2024/01/27 11:58:32;;;;;;;1.52;1.42;;;10.50;99.90;;;;;;5003531;28;20041;-75
2024/01/27 12:00:59;;;;;;;1.75;0.90;;;10.20;99.90;;;;;;5005375;28;20034;-79
2024/01/27 12:03:28;;;;;;;0.00;0.00;;;10.50;99.90;;;;;;5009225;28;20490;-84
2024/01/27 12:05:55;;;;;;;1.58;1.17;;;10.70;99.90;;;;;;5011808;28;20084;-86
2024/01/27 12:08:21;;;;;;;1.20;1.02;;;10.40;99.90;;;;;;5003381;28;20030;-84
2024/01/27 12:10:47;;;;;;;0.63;0.60;;;10.70;99.90;;;;;;5012519;28;20601;-83
2024/01/27 12:13:13;;;;;;;20.63;0.95;;;10.20;99.90;;;;;;5011260;28;20025;-84
2024/01/27 12:15:39;;;;;;;1.13;0.82;;;10.30;99.90;;;;;;5012437;28;20026;-84
2024/01/27 12:18:05;;;;;;;14.23;1.45;;;10.60;99.90;;;;;;5012222;28;20037;-85
2024/01/27 12:20:31;;;;;;;1.30;0.75;;;10.60;99.90;;;;;;4994938;28;20029;-84
2024/01/27 12:23:07;;;;;;;0.30;0.30;;;10.70;99.90;;;;;;5012315;28;20022;-84
2024/01/27 12:25:33;;;;;;;4.38;1.63;;;10.50;99.90;;;;;;5011574;28;20033;-85
2024/01/27 12:28:07;;;;;;;1.98;0.63;;;10.70;99.90;;;;;;5012183;28;20045;-83
2024/01/27 12:30:33;;;;;;;0.20;0.20;;;10.20;99.90;;;;;;5007670;28;20062;-84
2024/01/27 12:33:00;;;;;;;0.30;0.30;;;9.50;99.90;;;;;;5003276;28;20501;-85
2024/01/27 12:35:28;;;;;;;0.52;0.52;;;9.70;99.90;;;;;;5012532;28;20022;-84
2024/01/27 12:37:55;;;;;;;0.10;0.10;;;9.70;99.90;;;;;;5012369;28;20475;-84
2024/01/27 12:40:21;;;;;;;0.40;0.40;;;9.80;99.90;;;;;;5012576;28;20038;-84
2024/01/27 12:42:51;;;;;;;0.10;0.10;;;9.70;99.90;;;;;;4999742;28;20084;-86
2024/01/27 12:45:17;;;;;;;8.00;0.55;;;9.90;99.90;;;;;;5010904;28;20026;-85
2024/01/27 12:47:42;;;;;;;0.22;0.22;;;9.70;99.90;;;;;;5012178;28;20076;-85
2024/01/27 12:50:09;;;;;;;0.52;0.40;;;10.00;99.90;;;;;;5011259;28;20112;-86
2024/01/27 12:52:36;;;;;;;3.00;2.42;;;9.90;99.90;;;;;;5012632;28;20030;-85